Pagina principale
METAR-TAF:

METAR-TAF

Aeroporti :

Aeroporto di Torino-Caselle

Torino, Italia

latitudine: 45-13N, longitudine: 007-39E, altezza: 301 m

Osservazione

Il bollettino è stato emesso 41 minuti fa, alle 19:20 UTC
Vento 6 kt da nord/nord-ovest
Temperature 9°C
Umidità 93%
Pressione 1012 hPa
Visibilità: 3000 m
Nuvoloso ad un'altezza di 800 ft
Cielo coperto ad un'altezza di 3000 ft
pioggia, foschia

METAR: LIMF 211920Z 33006KT 3000 RA BR BKN008 OVC030 09/08 Q1012

Ora: 21:01 (20:01 UTC)

Previsione

Il bollettino è stato emesso 3 ore e 1 minuti fa, alle 17:00 UTC
Previsione valida dal 21 alle 18 UTC al 22 alle 18 UTC
Vento 5 kt da direzioni variabili
Visibilità: 2000 m
Nuvoloso ad un'altezza di 800 ft
Cielo coperto ad un'altezza di 3000 ft
pioggia

TAF: LIMF 211700Z 2118/2218 VRB05KT 2000 RA BKN008 OVC030

Osservazioni e previsioni meteorologiche di più di 4000 aeroporti (messaggi METAR e TAF).

Le stazioni disponibili sono rappresentate dai dischi gialli e rossi sulla carta.

Puntare il mouse per vedere il nome della stazione.

Clicca sopra per visualizzare le osservazioni e previsioni meteorologiche.

Per cambiare la mappa : fare clic sui pulsanti verdi con una croce nera per ingrandire, il pulsante verde con un trattino per diminuire, o sulla freccia verde per le mappe adiacenti.


METAR-TAF: